createdAt,value
2023-02-08T00:02:44.334Z,78.29
2023-02-08T00:05:46.814Z,78.61
2023-02-08T00:08:49.349Z,78.65
2023-02-08T00:11:51.858Z,78.33
2023-02-08T00:14:54.289Z,78.18
2023-02-08T00:17:56.669Z,78.13
2023-02-08T00:20:59.519Z,78.25
2023-02-08T00:24:01.987Z,78.51
2023-02-08T00:27:04.371Z,78.57
2023-02-08T00:30:07.580Z,78.18
2023-02-08T00:33:12.846Z,78.77
2023-02-08T00:36:15.507Z,78.94
2023-02-08T00:39:17.922Z,78.88
2023-02-08T00:42:20.368Z,78.73
2023-02-08T00:45:23.724Z,78.56
2023-02-08T00:48:27.754Z,79.13
2023-02-08T00:51:30.299Z,78.57
2023-02-08T00:54:32.765Z,78.67
2023-02-08T00:57:35.651Z,78.48
2023-02-08T01:00:40.161Z,78.04
2023-02-08T01:03:43.443Z,78.41
2023-02-08T01:06:46.108Z,78.81
2023-02-08T01:09:48.610Z,79.29
2023-02-08T01:12:51.148Z,79.07
2023-02-08T01:15:54.316Z,79.29
2023-02-08T01:18:58.621Z,79.52
2023-02-08T01:22:01.032Z,79.38
2023-02-08T01:25:04.256Z,79.58
2023-02-08T01:28:06.988Z,79.04
2023-02-08T01:31:15.424Z,79.00
2023-02-08T01:34:17.942Z,76.20
2023-02-08T01:37:20.407Z,74.41
2023-02-08T01:40:23.414Z,73.87
2023-02-08T01:43:27.859Z,73.33
2023-02-08T01:46:31.243Z,76.00
2023-02-08T01:49:36.417Z,76.84
2023-02-08T01:52:39.027Z,76.59
2023-02-08T01:55:46.764Z,77.37
2023-02-08T01:58:52.655Z,79.40
2023-02-08T02:01:56.711Z,80.32
2023-02-08T02:04:59.753Z,80.46
2023-02-08T02:08:04.798Z,80.88
2023-02-08T02:11:07.471Z,80.18
2023-02-08T02:14:10.735Z,80.52
2023-02-08T02:17:14.212Z,80.41
2023-02-08T02:20:40.345Z,79.95
2023-02-08T02:24:00.882Z,79.90
2023-02-08T02:27:23.458Z,80.22
2023-02-08T02:30:51.587Z,80.16
2023-02-08T02:34:31.700Z,79.73
2023-02-08T02:37:45.961Z,79.09
2023-02-08T02:41:00.482Z,78.64
2023-02-08T02:44:05.699Z,78.23
2023-02-08T02:47:28.480Z,78.07
2023-02-08T02:50:37.558Z,78.52
2023-02-08T02:54:03.428Z,75.77
2023-02-08T02:57:09.770Z,75.11
2023-02-08T03:00:13.979Z,74.57
2023-02-08T03:03:21.551Z,75.45
2023-02-08T03:06:56.796Z,75.25
2023-02-08T03:10:18.250Z,75.93
2023-02-08T03:14:00.930Z,76.38
2023-02-08T03:17:09.044Z,75.94
2023-02-08T03:20:32.815Z,76.90
2023-02-08T03:23:59.927Z,74.45
2023-02-08T03:27:20.821Z,76.19
2023-02-08T03:30:45.347Z,76.37
2023-02-08T03:33:54.005Z,77.40
2023-02-08T03:37:01.236Z,77.44
2023-02-08T03:40:12.096Z,77.06
2023-02-08T03:43:27.812Z,76.24
2023-02-08T03:46:55.292Z,76.12
2023-02-08T03:50:00.418Z,76.92
2023-02-08T03:53:04.156Z,77.43
2023-02-08T03:56:32.552Z,77.06
2023-02-08T03:59:38.958Z,78.06
2023-02-08T04:02:50.787Z,78.21
2023-02-08T04:05:53.428Z,79.08
2023-02-08T04:08:56.129Z,79.97
2023-02-08T04:11:58.881Z,80.23
2023-02-08T04:15:01.378Z,80.71
2023-02-08T04:18:04.128Z,80.28
2023-02-08T04:21:07.707Z,79.99
2023-02-08T04:24:10.331Z,80.45
2023-02-08T04:27:12.763Z,81.08
2023-02-08T04:30:15.559Z,80.67
2023-02-08T04:33:18.808Z,79.99
2023-02-08T04:36:21.282Z,80.00
2023-02-08T04:39:24.103Z,79.59
2023-02-08T04:42:26.778Z,79.31
2023-02-08T04:45:32.074Z,79.80
2023-02-08T04:48:34.725Z,79.56
2023-02-08T04:51:37.432Z,79.42
2023-02-08T04:54:40.997Z,79.52
2023-02-08T04:57:43.495Z,79.25
2023-02-08T05:00:46.505Z,79.14
2023-02-08T05:03:49.178Z,79.62
2023-02-08T05:06:51.594Z,79.51
2023-02-08T05:09:54.067Z,79.53
2023-02-08T05:12:56.672Z,79.89
2023-02-08T05:15:59.214Z,80.17
2023-02-08T05:19:01.741Z,79.80
2023-02-08T05:22:04.239Z,80.21
2023-02-08T05:25:08.112Z,80.48
2023-02-08T05:28:10.734Z,81.34
2023-02-08T05:31:24.294Z,82.41
2023-02-08T05:34:26.963Z,82.71
2023-02-08T05:37:29.515Z,82.62
2023-02-08T05:40:33.525Z,82.72
2023-02-08T05:43:36.452Z,83.00
2023-02-08T05:46:42.931Z,82.60
2023-02-08T05:49:45.558Z,82.58
2023-02-08T05:52:47.932Z,82.76
2023-02-08T05:55:50.331Z,82.20
2023-02-08T05:58:52.809Z,82.28
2023-02-08T06:01:55.298Z,82.24
2023-02-08T06:04:57.684Z,82.07
2023-02-08T06:08:00.174Z,82.71
2023-02-08T06:11:02.684Z,82.33
2023-02-08T06:14:05.240Z,82.98
2023-02-08T06:17:07.719Z,80.15
2023-02-08T06:20:10.486Z,81.89
2023-02-08T06:23:14.731Z,82.14
2023-02-08T06:26:17.194Z,82.42
2023-02-08T06:29:20.325Z,81.84
2023-02-08T06:32:23.329Z,82.38
2023-02-08T06:35:25.878Z,82.43
2023-02-08T06:38:28.615Z,82.30
2023-02-08T06:41:31.176Z,82.29
2023-02-08T06:44:33.610Z,82.03
2023-02-08T06:47:36.083Z,82.27
2023-02-08T06:50:39.130Z,82.11
2023-02-08T06:53:41.801Z,81.72
2023-02-08T06:56:44.291Z,81.81
2023-02-08T06:59:46.879Z,81.54
2023-02-08T07:02:49.654Z,81.57
2023-02-08T07:06:04.505Z,81.18
2023-02-08T07:09:07.612Z,81.50
2023-02-08T07:12:10.357Z,80.53
2023-02-08T07:15:13.706Z,79.13
2023-02-08T07:18:16.156Z,78.92
2023-02-08T07:21:18.826Z,78.21
2023-02-08T07:24:21.374Z,77.28
2023-02-08T07:27:25.986Z,76.45
2023-02-08T07:30:31.703Z,75.42
2023-02-08T07:33:34.528Z,75.20
2023-02-08T07:36:37.113Z,73.70
2023-02-08T07:39:40.096Z,73.96
2023-02-08T07:42:42.566Z,74.23
2023-02-08T07:45:57.251Z,72.77
2023-02-08T07:48:59.700Z,72.80
2023-02-08T07:52:02.422Z,71.68
2023-02-08T07:55:04.954Z,70.65
2023-02-08T07:58:07.368Z,70.20
2023-02-08T08:01:21.541Z,69.22
2023-02-08T08:04:25.011Z,69.18
2023-02-08T08:07:27.441Z,67.98
2023-02-08T08:10:31.021Z,68.24
2023-02-08T08:13:33.440Z,67.49
2023-02-08T08:16:36.005Z,66.37
2023-02-08T08:19:38.501Z,67.10
2023-02-08T08:22:41.271Z,66.07
2023-02-08T08:25:43.808Z,65.99
2023-02-08T08:28:46.954Z,64.53
2023-02-08T08:31:49.798Z,64.37
2023-02-08T08:34:52.352Z,64.62
2023-02-08T08:37:54.904Z,64.14
2023-02-08T08:40:57.382Z,62.02
2023-02-08T08:43:59.883Z,63.44
2023-02-08T08:47:02.451Z,61.84
2023-02-08T08:50:05.193Z,62.08
2023-02-08T08:53:07.823Z,61.91
2023-02-08T08:56:10.496Z,61.40
2023-02-08T08:59:12.993Z,61.40
2023-02-08T09:02:15.690Z,60.86
2023-02-08T09:05:18.486Z,60.41
2023-02-08T09:08:21.208Z,60.47
2023-02-08T09:11:23.615Z,59.57
2023-02-08T09:14:26.154Z,56.26
2023-02-08T09:17:28.752Z,57.00
2023-02-08T09:20:31.475Z,56.85
2023-02-08T09:23:34.014Z,56.95
2023-02-08T09:26:36.548Z,56.61
2023-02-08T09:29:39.531Z,56.32
2023-02-08T09:32:42.010Z,55.71
2023-02-08T09:35:44.693Z,57.44
2023-02-08T09:38:47.445Z,57.22
2023-02-08T09:42:16.949Z,56.81
2023-02-08T09:45:59.192Z,55.68
2023-02-08T09:49:04.046Z,55.70
2023-02-08T09:52:11.567Z,55.39
2023-02-08T09:55:28.866Z,53.39
2023-02-08T09:58:52.034Z,51.94
2023-02-08T10:02:11.225Z,53.80
2023-02-08T10:05:15.908Z,53.71
2023-02-08T10:08:18.543Z,50.69
2023-02-08T10:11:40.130Z,51.02
2023-02-08T10:14:57.837Z,50.25
2023-02-08T10:18:24.913Z,49.95
2023-02-08T10:21:30.312Z,49.26
2023-02-08T10:24:40.119Z,49.23
2023-02-08T10:27:46.954Z,50.20
2023-02-08T10:30:57.759Z,50.68
2023-02-08T10:34:44.853Z,50.26
2023-02-08T10:37:47.533Z,48.76
2023-02-08T10:40:57.737Z,48.98
2023-02-08T10:44:28.231Z,49.02
2023-02-08T10:47:38.923Z,49.70
2023-02-08T10:50:44.349Z,48.83
2023-02-08T10:53:47.752Z,46.33
2023-02-08T10:56:57.524Z,47.10
2023-02-08T11:00:06.708Z,48.27
2023-02-08T11:03:22.543Z,49.00
2023-02-08T11:06:26.190Z,49.64
2023-02-08T11:09:30.962Z,48.13
2023-02-08T11:12:33.642Z,47.76
2023-02-08T11:15:44.592Z,47.28
2023-02-08T11:18:50.271Z,47.60
2023-02-08T11:21:53.132Z,46.35
2023-02-08T11:25:01.543Z,46.63
2023-02-08T11:28:05.031Z,47.47
2023-02-08T11:31:21.187Z,47.67
2023-02-08T11:34:30.451Z,48.12
2023-02-08T11:37:32.844Z,48.55
2023-02-08T11:40:38.248Z,47.05
2023-02-08T11:43:40.865Z,48.95
2023-02-08T11:46:47.765Z,48.43
2023-02-08T11:49:56.017Z,48.19
2023-02-08T11:53:04.379Z,47.89
2023-02-08T11:56:10.116Z,47.10
2023-02-08T11:59:22.882Z,46.72
2023-02-08T12:02:37.029Z,46.98
2023-02-08T12:05:50.771Z,46.83
2023-02-08T12:09:14.605Z,45.98
2023-02-08T12:12:30.161Z,46.26
2023-02-08T12:16:14.649Z,45.90
2023-02-08T12:19:29.788Z,47.56
2023-02-08T12:22:33.131Z,47.25
2023-02-08T12:25:41.960Z,46.21
2023-02-08T12:29:10.986Z,46.63
2023-02-08T12:32:22.298Z,45.79
2023-02-08T12:35:54.012Z,45.86
2023-02-08T12:39:26.186Z,45.52
2023-02-08T12:42:31.911Z,45.71
2023-02-08T12:46:01.383Z,45.91
2023-02-08T12:49:31.703Z,45.59
2023-02-08T12:52:41.734Z,44.63
2023-02-08T12:55:44.641Z,43.00
2023-02-08T12:58:50.293Z,41.13
2023-02-08T13:01:58.194Z,40.81
2023-02-08T13:05:05.101Z,41.91
2023-02-08T13:08:18.602Z,39.72
2023-02-08T13:11:31.009Z,39.18
2023-02-08T13:14:40.339Z,38.83
2023-02-08T13:17:51.646Z,38.04
2023-02-08T13:20:59.493Z,38.56
2023-02-08T13:24:36.647Z,37.68
2023-02-08T13:27:39.103Z,39.27
2023-02-08T13:30:43.593Z,40.42
2023-02-08T13:34:00.780Z,39.37
2023-02-08T13:37:24.576Z,40.81
2023-02-08T13:40:30.840Z,38.33
2023-02-08T13:43:40.659Z,38.54
2023-02-08T13:46:48.375Z,38.59
2023-02-08T13:49:54.792Z,39.54
2023-02-08T13:52:57.504Z,39.59
2023-02-08T13:56:01.243Z,39.35
2023-02-08T13:59:05.360Z,39.27
2023-02-08T14:02:19.022Z,38.42
2023-02-08T14:05:47.506Z,38.11
2023-02-08T14:09:08.646Z,38.75
2023-02-08T14:12:28.191Z,38.11
2023-02-08T14:15:38.904Z,37.58
2023-02-08T14:18:51.761Z,38.15
2023-02-08T14:22:14.185Z,39.52
2023-02-08T14:25:19.450Z,38.80
2023-02-08T14:28:38.695Z,37.81
2023-02-08T14:31:43.408Z,37.45
2023-02-08T14:34:46.939Z,38.31
2023-02-08T14:37:55.870Z,37.90
2023-02-08T14:41:03.210Z,39.13
2023-02-08T14:44:41.613Z,39.33
2023-02-08T14:47:44.000Z,39.44
2023-02-08T14:50:59.879Z,40.02
2023-02-08T14:54:31.537Z,40.55
2023-02-08T14:57:37.082Z,42.86
2023-02-08T15:00:40.063Z,43.67
2023-02-08T15:03:43.279Z,45.09
2023-02-08T15:06:56.682Z,44.33
2023-02-08T15:10:33.488Z,47.33
2023-02-08T15:13:36.009Z,48.67
2023-02-08T15:16:43.084Z,49.17
2023-02-08T15:19:46.234Z,48.92
2023-02-08T15:22:48.934Z,48.44
2023-02-08T15:26:29.916Z,48.53
2023-02-08T15:29:44.629Z,49.04
2023-02-08T15:32:47.581Z,50.53
2023-02-08T15:36:00.499Z,51.14
2023-02-08T15:39:11.482Z,51.97
2023-02-08T15:42:25.286Z,52.89
2023-02-08T15:45:31.290Z,53.54
2023-02-08T15:48:42.658Z,54.40
2023-02-08T15:51:46.215Z,55.30
2023-02-08T15:54:48.948Z,55.65
2023-02-08T15:58:19.050Z,55.96
2023-02-08T16:01:22.189Z,56.06
2023-02-08T16:04:25.593Z,55.93
2023-02-08T16:07:39.706Z,56.98
2023-02-08T16:10:47.989Z,57.02
2023-02-08T16:13:52.655Z,56.92
2023-02-08T16:16:57.489Z,57.25
2023-02-08T16:20:00.329Z,57.60
2023-02-08T16:27:37.071Z,57.88
2023-02-08T16:30:44.815Z,58.41
2023-02-08T16:33:47.602Z,58.40
2023-02-08T16:36:51.698Z,59.48
2023-02-08T16:40:02.557Z,59.95
2023-02-08T16:43:31.827Z,59.54
2023-02-08T16:46:43.827Z,59.09
2023-02-08T16:49:49.472Z,58.71
2023-02-08T16:52:55.692Z,59.71
2023-02-08T16:55:58.403Z,60.74
2023-02-08T16:59:01.123Z,61.36
2023-02-08T17:02:03.946Z,61.15
2023-02-08T17:05:06.610Z,60.97
2023-02-08T17:08:15.322Z,60.82
2023-02-08T17:11:18.086Z,60.67
2023-02-08T17:14:20.583Z,60.44
2023-02-08T17:17:23.092Z,61.80
2023-02-08T17:20:29.487Z,61.08
2023-02-08T17:24:42.591Z,61.87
2023-02-08T17:27:51.125Z,62.39
2023-02-08T17:30:54.053Z,63.00
2023-02-08T17:34:04.257Z,63.45
2023-02-08T17:37:07.031Z,64.40
2023-02-08T17:40:09.772Z,65.01
2023-02-08T17:43:17.859Z,64.88
2023-02-08T17:46:23.628Z,65.40
2023-02-08T17:49:26.411Z,65.12
2023-02-08T17:52:28.997Z,64.96
2023-02-08T17:55:31.856Z,64.23
2023-02-08T17:58:34.588Z,64.14
2023-02-08T18:01:37.782Z,64.78
2023-02-08T18:04:40.616Z,65.70
2023-02-08T18:07:43.158Z,65.38
2023-02-08T18:10:47.494Z,65.87
2023-02-08T18:13:52.266Z,64.91
2023-02-08T18:16:57.122Z,64.86
2023-02-08T18:20:00.270Z,64.80
2023-02-08T18:23:03.238Z,65.65
2023-02-08T18:26:11.679Z,65.33
2023-02-08T18:29:14.864Z,64.09
2023-02-08T18:32:19.765Z,64.11
2023-02-08T18:35:22.662Z,64.75
2023-02-08T18:39:29.334Z,64.99
2023-02-08T18:42:33.080Z,64.57
2023-02-08T18:45:36.736Z,65.18
2023-02-08T18:48:40.176Z,65.20
2023-02-08T18:51:47.352Z,64.67
2023-02-08T18:54:50.186Z,65.08
2023-02-08T18:57:53.053Z,65.00
2023-02-08T19:01:09.092Z,65.52
2023-02-08T19:04:12.265Z,65.63
2023-02-08T19:07:15.397Z,65.71
2023-02-08T19:10:18.415Z,65.85
2023-02-08T19:13:21.580Z,66.57
2023-02-08T19:16:24.754Z,67.14
2023-02-08T19:19:27.715Z,67.08
2023-02-08T19:22:30.444Z,66.73
2023-02-08T19:25:37.122Z,67.46
2023-02-08T19:28:40.604Z,67.92
2023-02-08T19:31:44.103Z,68.56
2023-02-08T19:34:49.734Z,69.51
2023-02-08T19:37:52.796Z,69.48
2023-02-08T19:40:55.657Z,69.31
2023-02-08T19:43:58.915Z,69.25
2023-02-08T19:47:01.646Z,70.31
2023-02-08T19:50:05.655Z,70.56
2023-02-08T19:53:09.965Z,69.45
2023-02-08T19:56:15.155Z,70.03
2023-02-08T19:59:20.226Z,69.56
2023-02-08T20:02:24.963Z,69.00
2023-02-08T20:05:27.681Z,69.62
2023-02-08T20:08:31.076Z,69.50
2023-02-08T20:11:38.711Z,69.26
2023-02-08T20:14:45.378Z,69.43
2023-02-08T20:17:48.033Z,69.62
2023-02-08T20:21:01.802Z,69.42
2023-02-08T20:24:05.081Z,68.87
2023-02-08T20:27:07.619Z,69.98
2023-02-08T20:30:11.946Z,70.12
2023-02-08T20:33:15.823Z,70.87
2023-02-08T20:36:23.893Z,71.47
2023-02-08T20:39:26.657Z,71.21
2023-02-08T20:42:29.391Z,71.53
2023-02-08T20:45:31.983Z,72.97
2023-02-08T20:48:35.122Z,71.21
2023-02-08T20:51:37.601Z,70.86
2023-02-08T20:54:42.201Z,72.26
2023-02-08T20:57:44.602Z,72.00
2023-02-08T21:00:47.784Z,71.70
2023-02-08T21:03:50.589Z,71.68
2023-02-08T21:06:53.677Z,71.51
2023-02-08T21:09:56.788Z,72.61
2023-02-08T21:12:59.363Z,71.94
2023-02-08T21:16:06.984Z,72.42
2023-02-08T21:19:10.856Z,72.45
2023-02-08T21:22:13.955Z,72.28
2023-02-08T21:25:16.483Z,72.68
2023-02-08T21:28:19.236Z,73.38
2023-02-08T21:31:23.375Z,72.53
2023-02-08T21:34:26.054Z,72.15
2023-02-08T21:37:28.478Z,72.65
2023-02-08T21:40:33.868Z,72.38
2023-02-08T21:43:37.712Z,72.22
2023-02-08T21:46:40.359Z,74.57
2023-02-08T21:50:01.043Z,76.63
2023-02-08T21:53:22.199Z,77.30
2023-02-08T21:56:24.697Z,76.42
2023-02-08T21:59:28.832Z,76.29
2023-02-08T22:02:31.461Z,77.04
2023-02-08T22:05:52.320Z,77.26
2023-02-08T22:08:54.874Z,77.71
2023-02-08T22:11:57.516Z,76.82
2023-02-08T22:15:00.109Z,75.95
2023-02-08T22:18:03.915Z,75.50
2023-02-08T22:21:08.673Z,75.12
2023-02-08T22:24:11.166Z,75.03
2023-02-08T22:27:13.623Z,74.32
2023-02-08T22:30:18.121Z,74.10
2023-02-08T22:33:24.956Z,74.22
2023-02-08T22:36:27.556Z,74.62
2023-02-08T22:39:32.910Z,75.86
2023-02-08T22:42:35.711Z,76.67
2023-02-08T22:45:38.227Z,76.97
2023-02-08T22:48:41.372Z,76.48
2023-02-08T22:51:43.939Z,75.90
2023-02-08T22:54:47.624Z,75.01
2023-02-08T22:57:50.100Z,74.40
2023-02-08T23:00:53.055Z,73.39
2023-02-08T23:03:55.499Z,72.83
2023-02-08T23:06:58.979Z,73.91
2023-02-08T23:10:01.479Z,73.96
2023-02-08T23:13:05.210Z,74.88
2023-02-08T23:16:08.061Z,75.31
2023-02-08T23:19:14.971Z,74.75
2023-02-08T23:22:17.436Z,74.69
2023-02-08T23:25:20.075Z,74.58
2023-02-08T23:28:22.553Z,75.56
2023-02-08T23:31:25.202Z,75.86
2023-02-08T23:34:27.852Z,74.86
2023-02-08T23:37:30.341Z,75.49
2023-02-08T23:40:32.843Z,76.90
2023-02-08T23:43:35.861Z,77.26
2023-02-08T23:46:38.298Z,76.61
2023-02-08T23:49:40.718Z,77.11
2023-02-08T23:52:43.165Z,77.56
2023-02-08T23:55:45.855Z,76.54
2023-02-08T23:58:50.928Z,76.34
